• Join FlightAware (Why Join?)
  • Login
  • US Flag 
Gobble Gobble! 
06:10PM EST


 

Airport Tracker/Info


-or-


 

Live Flight TrackerFlight Track Log ✈ D-AIMA ✈ 19-Apr-2013 ✈ EDDF / FRA - RJAA / NRT

Flight Track Log - Related Links

Times and Time Zones

All times are in EDT time to prevent confusion due to time zone crossing. See the D-AIMA flight status page for this flight to view local times or setup timezone preferences in your user account.

Time Position Orientation Groundspeed Altitude Reporting Facility
EDT Latitude Longitude Course Direction KTS MPH feet Rate Location/Type
08:23AM 50.0100 8.4910 195° South 170 196 1,600  Level FlightAware
08:23AM 49.9910 8.4840 193° South 186 214 1,900 720 Climbing FlightAware
08:24AM 49.9400 8.4610 196° South 254 292 2,500 960 Climbing FlightAware
08:24AM 49.9190 8.4430 209° Southwest 248 285 3,100 2,220 Climbing FlightAware
08:25AM 49.9110 8.4170 244° Southwest 247 284 3,800 2,220 Climbing FlightAware
08:25AM 49.9170 8.3660 280° West 253 291 4,800 2,100 Climbing FlightAware
08:25AM 49.9260 8.3520 315° West 254 292 5,200 2,160 Climbing FlightAware
08:26AM 49.9390 8.3440 338° Northwest 256 295 5,700 1,440 Climbing FlightAware
08:26AM 49.9750 8.3240 340° North 278 320 6,300 1,200 Climbing FlightAware
08:26AM 49.9950 8.3120 339° North 296 341 6,600 1,800 Climbing FlightAware
08:27AM 50.0290 8.2900 337° Northwest 296 341 7,500 2,100 Climbing FlightAware
08:27AM 50.0490 8.2830 347° North 304 350 8,000 2,100 Climbing FlightAware
08:27AM 50.0840 8.2960 13° North 323 372 8,900 1,320 Climbing FlightAware
08:28AM 50.1440 8.3290 19° North 323 372 9,600 1,380 Climbing FlightAware
08:29AM 50.2080 8.3620 18° North 324 373 11,000 1,920 Climbing FlightAware
08:30AM 50.2710 8.3950 19° North 332 382 12,400 1,560 Climbing FlightAware
08:30AM 50.3180 8.4460 35° Northeast 361 415 13,100 900 Climbing FlightAware
08:31AM 50.3610 8.5380 54° Northeast 396 456 13,600 840 Climbing FlightAware
08:32AM 50.4090 8.6470 55° Northeast 421 484 14,300 1,500 Climbing FlightAware
08:33AM 50.4650 8.7730 55° Northeast 425 489 16,000 2,040 Climbing FlightAware
08:33AM 50.5230 8.9030 55° Northeast 435 501 17,700 1,740 Climbing FlightAware
08:34AM 50.5630 8.9930 55° Northeast 453 521 18,500 1,920 Climbing FlightAware
08:35AM 50.6240 9.1310 55° Northeast 454 522 20,500 1,920 Climbing FlightAware
08:35AM 50.6710 9.2380 55° Northeast 462 532 21,400 1,200 Climbing FlightAware
08:36AM 50.7130 9.3350 56° Northeast 481 554 22,000 1,500 Climbing FlightAware
08:37AM 50.7780 9.4840 55° Northeast 483 556 23,600 1,380 Climbing FlightAware
08:38AM 50.8280 9.5990 55° Northeast 498 573 24,100 960 Climbing FlightAware
08:38AM 50.8760 9.7180 57° Northeast 507 583 24,900 1,260 Climbing FlightAware
08:39AM 50.9190 9.8570 64° Northeast 512 589 25,800 1,200 Climbing FlightAware
08:40AM 50.9660 10.0100 64° Northeast 525 604 26,700 720 Climbing FlightAware
08:40AM 51.0110 10.1560 64° Northeast 542 624 27,000 840 Climbing FlightAware
08:41AM 51.0660 10.3390 64° Northeast 548 631 27,900 1,080 Climbing FlightAware
08:42AM 51.1060 10.4770 65° Northeast 556 640 28,500 1,020 Climbing FlightAware
08:42AM 51.1620 10.6270 59° Northeast 569 655 29,300 1,020 Climbing FlightAware
08:43AM 51.2350 10.7760 52° Northeast 569 655 30,000 960 Climbing FlightAware
08:44AM 51.3080 10.8930 45° Northeast 570 656 30,700 1,020 Climbing FlightAware
08:45AM 51.4040 11.0140 38° Northeast 574 661 31,500 1,020 Climbing FlightAware
08:45AM 51.4890 11.1140 36° Northeast 576 663 32,200 1,020 Climbing FlightAware
08:46AM 51.5730 11.2560 46° Northeast 574 661 33,000 1,020 Climbing FlightAware
08:47AM 51.6420 11.3740 47° Northeast 568 654 33,700 1,260 Climbing FlightAware
08:47AM 51.7250 11.5150 46° Northeast 565 650 34,800 960 Climbing FlightAware
08:48AM 51.7880 11.6240 47° Northeast 568 654 35,000 120 Climbing FlightAware
08:49AM 51.8680 11.7620 47° Northeast 567 652 35,000  Level FlightAware
08:50AM 51.9480 11.9010 47° Northeast 568 654 35,000  Level FlightAware
08:50AM 52.0180 12.0220 47° Northeast 570 656 35,000  Level FlightAware
08:51AM 52.0940 12.1550 47° Northeast 569 655 35,000  Level FlightAware
08:52AM 52.1730 12.2940 47° Northeast 569 655 35,000  Level FlightAware
08:52AM 52.2440 12.4200 47° Northeast 570 656 35,000  Level FlightAware
08:53AM 52.3160 12.5480 47° Northeast 569 655 35,000  Level FlightAware
08:54AM 52.3950 12.6900 48° Northeast 569 655 35,000  Level FlightAware
08:54AM 52.4660 12.8180 48° Northeast 569 655 35,000  Level FlightAware
08:55AM 52.5450 12.9590 47° Northeast 563 648 35,000  Level FlightAware
08:56AM 52.6110 13.0810 48° Northeast 562 647 35,000  Level FlightAware
08:56AM 52.6860 13.2160 47° Northeast 562 647 35,000  Level FlightAware
08:57AM 52.7610 13.3550 48° Northeast 563 648 35,000  Level FlightAware
08:58AM 52.8330 13.4880 48° Northeast 564 649 35,000  Level FlightAware
08:59AM 52.9120 13.6350 48° Northeast 565 650 35,000  Level FlightAware
08:59AM 52.9850 13.7700 48° Northeast 563 648 35,000  Level FlightAware
09:00AM 53.0610 13.9140 49° Northeast 562 647 35,000  Level FlightAware
09:01AM 53.1290 14.0420 48° Northeast 563 648 35,000  Level FlightAware
09:01AM 53.1990 14.1750 49° Northeast 568 654 35,000  Level FlightAware
09:02AM 53.2770 14.3240 49° Northeast 569 655 35,000  Level FlightAware
09:03AM 53.3440 14.4530 49° Northeast 570 656 35,000  Level FlightAware
09:03AM 53.4150 14.5910 49° Northeast 570 656 35,000  Level FlightAware
09:04AM 53.4930 14.7420 49° Northeast 570 656 35,000  Level FlightAware
09:05AM 53.5610 14.8740 49° Northeast 571 657 35,000  Level FlightAware
09:06AM 53.6320 15.0140 49° Northeast 573 659 35,000  Level FlightAware
09:06AM 53.7080 15.1640 49° Northeast 573 659 35,000  Level FlightAware
09:07AM 53.7750 15.2970 50° Northeast 574 661 35,000  Level FlightAware
09:08AM 53.8520 15.4520 50° Northeast 574 661 35,000  Level FlightAware
09:08AM 53.9200 15.5890 50° Northeast 572 658 35,000  Level FlightAware
09:09AM 53.9950 15.7410 50° Northeast 572 658 35,000  Level FlightAware
09:10AM 54.0600 15.8720 50° Northeast 573 659 35,000  Level FlightAware
09:11AM 54.1390 16.0330 50° Northeast 574 661 35,000  Level FlightAware
09:11AM 54.2040 16.1680 51° Northeast 569 655 35,000  Level FlightAware
09:12AM 54.2820 16.3290 50° Northeast 574 661 35,000  Level FlightAware
09:13AM 54.3580 16.4890 51° Northeast 574 661 35,000  Level FlightAware
09:13AM 54.4250 16.6290 51° Northeast 575 662 35,000  Level FlightAware
09:14AM 54.4960 16.7780 51° Northeast 575 662 35,000  Level FlightAware
09:15AM 54.5680 16.9310 51° Northeast 575 662 35,000  Level FlightAware
09:15AM 54.6350 17.0750 51° Northeast 576 663 35,000  Level FlightAware
09:16AM 54.7080 17.2320 51° Northeast 574 661 35,000  Level FlightAware
09:17AM 54.7730 17.3730 51° Northeast 575 662 35,000  Level FlightAware
09:18AM 54.8510 17.5420 51° Northeast 577 664 35,000  Level FlightAware
09:18AM 54.9170 17.6880 52° Northeast 578 665 35,000  Level FlightAware
09:19AM 54.9840 17.8330 51° Northeast 578 665 35,000  Level FlightAware
09:20AM 55.0540 17.9900 52° Northeast 576 663 35,000  Level FlightAware
09:20AM 55.1130 18.1210 52° Northeast 578 665 35,000  Level FlightAware
09:21AM 55.1970 18.3060 51° Northeast 578 665 35,000  Level FlightAware
09:22AM 55.2710 18.4380 45° Northeast 575 662 35,000  Level FlightAware
09:22AM 55.3530 18.5540 39° Northeast 574 661 35,000  Level FlightAware
09:23AM 55.4510 18.6690 34° Northeast 573 659 35,000  Level FlightAware
09:24AM 55.5390 18.7720 34° Northeast 575 662 35,000  Level FlightAware
09:25AM 55.6410 18.8920 34° Northeast 577 664 35,000  Level FlightAware
09:25AM 55.7250 19.0030 37° Northeast 583 671 35,000  Level FlightAware
09:26AM 55.7850 19.1030 43° Northeast 584 672 35,000  Level FlightAware
09:26AM 55.8560 19.2480 49° Northeast 585 673 35,000  Level FlightAware
09:27AM 55.9170 19.4050 55° Northeast 583 671 35,000  Level FlightAware
09:28AM 55.9790 19.5860 58° Northeast 584 672 35,000  Level FlightAware
09:28AM 56.0340 19.7490 59° Northeast 585 673 35,000  Level FlightAware
09:29AM 56.0920 19.9210 59° Northeast 586 674 35,000  Level FlightAware
09:30AM 56.1530 20.1010 59° Northeast 586 674 35,000  Level FlightAware
09:31AM 56.2140 20.2660 56° Northeast 588 677 35,000  Level FlightAware
09:31AM 56.2810 20.4470 56° Northeast 586 674 35,000  Level FlightAware
09:32AM 56.3410 20.6120 57° Northeast 587 676 35,000  Level FlightAware
09:33AM 56.4010 20.7770 57° Northeast 586 674 35,000  Level FlightAware
09:33AM 56.4520 20.9170 57° Northeast 586 674 35,000  Level FlightAware
09:34AM 56.5110 21.0810 57° Northeast 588 677 35,000  Level FlightAware
09:35AM 56.5550 21.2220 60° Northeast 586 674 35,000  Level FlightAware
09:35AM 56.5980 21.3630 61° Northeast 586 674 35,000  Level FlightAware
09:36AM 56.6500 21.5330 61° Northeast 585 673 35,000  Level FlightAware
09:37AM 56.7060 21.7200 61° Northeast 584 672 35,000  Level FlightAware
09:37AM 56.7540 21.8790 61° Northeast 585 673 35,000  Level FlightAware
09:38AM 56.8080 22.0600 61° Northeast 585 673 35,000  Level FlightAware
09:38AM 56.8540 22.2150 61° Northeast 584 672 35,000  Level FlightAware
09:39AM 56.9310 22.4790 62° Northeast 583 671 35,000  Level FlightAware
09:40AM 56.9820 22.6540 62° Northeast 583 671 35,000  Level FlightAware
09:41AM 57.0370 22.8480 62° Northeast 583 671 35,000  Level FlightAware
09:41AM 57.0830 23.0110 63° Northeast 582 670 35,000  Level FlightAware
09:42AM 57.1450 23.2310 62° Northeast 582 670 35,000  Level FlightAware
09:43AM 57.1940 23.4050 62° Northeast 582 670 35,000  Level FlightAware
09:43AM 57.2420 23.5820 63° Northeast 584 672 35,000  Level FlightAware
09:44AM 57.2970 23.7820 63° Northeast 585 673 35,000  Level FlightAware
09:45AM 57.3470 23.9630 63° Northeast 584 672 35,000  Level FlightAware
09:46AM 57.3990 24.1560 63° Northeast 584 672 35,000  Level FlightAware
09:46AM 57.4310 24.2760 64° Northeast 583 671 35,000  Level FlightAware
09:47AM 57.4950 24.5170 64° Northeast 582 670 35,000  Level FlightAware
09:48AM 57.5470 24.7160 64° Northeast 583 671 35,000  Level FlightAware
09:48AM 57.5950 24.8980 64° Northeast 583 671 35,000  Level FlightAware
09:49AM 57.6470 25.1010 64° Northeast 583 671 35,000  Level FlightAware
09:50AM 57.6880 25.2570 64° Northeast 584 672 35,000  Level FlightAware
09:50AM 57.7320 25.4320 65° Northeast 582 670 35,000  Level FlightAware
09:51AM 57.7920 25.6670 64° Northeast 578 665 35,000  Level FlightAware
09:52AM 57.8360 25.8470 65° Northeast 577 664 35,000  Level FlightAware
09:53AM 57.8910 26.0400 62° Northeast 578 665 35,000  Level FlightAware
09:53AM 57.9470 26.2210 60° Northeast 578 665 35,000  Level FlightAware
09:54AM 58.0050 26.4140 60° Northeast 579 666 35,000  Level FlightAware
09:55AM 58.0580 26.5910 60° Northeast 579 666 35,000  Level FlightAware
09:55AM 58.1110 26.7660 60° Northeast 580 667 35,000  Level FlightAware
09:56AM 58.1660 26.9550 61° Northeast 580 667 35,000  Level FlightAware
09:57AM 58.2180 27.1320 61° Northeast 580 667 35,000  Level FlightAware
09:58AM 58.2800 27.3450 61° Northeast 580 667 35,000  Level FlightAware
09:58AM 58.3310 27.5070 59° Northeast 582 670 35,000  Level FlightAware
09:59AM 58.4000 27.6790 53° Northeast 581 669 35,000  Level FlightAware
10:00AM 58.4770 27.8580 51° Northeast 583 671 35,000  Level FlightAware
10:00AM 58.5390 28.0050 51° Northeast 585 673 35,000  Level FlightAware
10:01AM 58.6130 28.1780 51° Northeast 587 676 35,000  Level FlightAware
10:02AM 58.6880 28.3570 51° Northeast 588 677 35,000  Level FlightAware
10:02AM 58.7550 28.5190 51° Northeast 588 677 35,000  Level FlightAware
10:03AM 58.8240 28.6860 51° Northeast 587 676 35,000  Level FlightAware
10:04AM 58.8990 28.8680 51° Northeast 588 677 35,000  Level FlightAware
10:04AM 58.9640 29.0280 52° Northeast 590 679 35,000  Level FlightAware
10:05AM 59.0220 29.2010 57° Northeast 592 681 35,000  Level FlightAware
10:06AM 59.0740 29.3940 62° Northeast 592 681 35,000  Level FlightAware
10:07AM 59.1310 29.6050 62° Northeast 590 679 35,000  Level FlightAware
10:07AM 59.1730 29.7630 63° Northeast 591 680 35,000  Level FlightAware
10:08AM 59.2240 29.9560 63° Northeast 591 680 35,000  Level FlightAware
10:09AM 59.2860 30.1950 63° Northeast 591 680 35,000  Level FlightAware
10:09AM 59.3360 30.3900 63° Northeast 591 680 35,000  Level FlightAware
10:10AM 59.3860 30.5860 63° Northeast 590 679 35,000  Level FlightAware
10:11AM 59.4380 30.7930 64° Northeast 593 682 35,000  Level FlightAware
10:12AM 59.5070 31.0690 64° Northeast 593 682 35,000  Level FlightAware
10:12AM 59.5510 31.2480 64° Northeast 592 681 35,000  Level FlightAware
10:13AM 59.6040 31.4660 64° Northeast 590 679 35,000  Level FlightAware
10:14AM 59.6530 31.6640 64° Northeast 589 678 35,000  Level FlightAware
10:14AM 59.7060 31.8820 64° Northeast 590 679 35,000  Level FlightAware
10:15AM 59.7580 32.1020 65° Northeast 591 680 35,000  Level FlightAware
10:16AM 59.8020 32.2970 66° East 592 681 35,000  Level FlightAware
10:17AM 59.8380 32.5280 73° East 593 682 35,000  Level FlightAware
10:18AM 59.8740 32.8350 77° East 593 682 35,000  Level FlightAware
10:18AM 59.8960 33.0200 77° East 593 682 35,000  Level FlightAware
10:19AM 59.9170 33.2010 77° East 592 681 35,000  Level FlightAware
10:20AM 59.9420 33.4140 77° East 592 681 35,000  Level FlightAware
10:20AM 59.9570 33.5500 78° East 592 681 35,000  Level FlightAware
10:21AM 59.9780 33.7310 77° East 592 681 35,000  Level FlightAware
10:21AM 59.9990 33.9120 77° East 592 681 35,000  Level FlightAware
10:22AM 60.0250 34.1390 77° East 592 681 35,000  Level FlightAware
10:23AM 60.0460 34.3210 77° East 592 681 35,000  Level FlightAware
10:23AM 60.0620 34.4570 77° East 592 681 35,000  Level FlightAware
10:24AM 60.0830 34.6390 77° East 592 681 35,000  Level FlightAware
10:25AM 60.1090 34.8670 77° East 592 681 35,000  Level FlightAware
10:26AM 60.1300 35.0490 77° East 592 681 35,000  Level FlightAware
10:26AM 60.1510 35.2310 77° East 592 681 35,000  Level FlightAware
10:27AM 60.1720 35.4140 77° East 592 681 35,000  Level FlightAware
10:28AM 60.1930 35.5960 77° East 592 681 35,000  Level FlightAware
10:28AM 60.2190 35.8240 77° East 592 681 35,000  Level FlightAware
10:31AM 60.3620 36.3129 59° Northeast  Level Estimated
10:32AM 60.4311 36.5529 60° Northeast  Level Estimated
10:33AM 60.4997 36.7939 60° Northeast  Level Estimated
10:34AM 60.5679 37.0360 60° Northeast  Level Estimated
10:35AM 60.6357 37.2791 60° Northeast  Level Estimated
10:36AM 60.7030 37.5232 61° Northeast  Level Estimated
10:37AM 60.7699 37.7683 61° Northeast  Level Estimated
10:38AM 60.8364 38.0145 61° Northeast  Level Estimated
10:39AM 60.9024 38.2616 61° Northeast  Level Estimated
10:40AM 60.9679 38.5098 61° Northeast  Level Estimated
10:41AM 61.0330 38.7590 62° Northeast  Level Estimated
10:42AM 61.0976 39.0093 62° Northeast  Level Estimated
10:43AM 61.1618 39.2605 62° Northeast  Level Estimated
10:44AM 61.2254 39.5128 62° Northeast  Level Estimated
10:45AM 61.2886 39.7661 62° Northeast  Level Estimated
10:46AM 61.3514 40.0204 63° Northeast  Level Estimated
10:46AM 61.1450 41.7790 63° Northeast 580 667 35,000  Level FlightAware
10:47AM 61.1820 42.0680 75° East 581 669 35,000  Level FlightAware
10:48AM 61.2090 42.2840 75° East 581 669 35,000  Level FlightAware
10:49AM 61.2390 42.5130 75° East 581 669 35,000  Level FlightAware
10:49AM 61.2630 42.6970 75° East 581 669 35,000  Level FlightAware
10:50AM 61.2860 42.8800 75° East 581 669 35,000  Level FlightAware
10:52AM 61.3798 43.3044 65° Northeast  Level Estimated
10:52AM 61.3650 43.6300 65° Northeast 580 667 35,000  Level FlightAware
10:52AM 61.3900 43.8570 77° East 579 666 35,000  Level FlightAware
10:53AM 61.4130 44.0700 77° East 579 666 35,000  Level FlightAware
10:54AM 61.4360 44.2850 77° East 577 664 35,000  Level FlightAware
10:54AM 61.4600 44.5070 77° East 576 663 35,000  Level FlightAware
10:55AM 61.4830 44.7240 77° East 577 664 35,000  Level FlightAware
10:56AM 61.5090 44.9690 77° East 578 665 35,000  Level FlightAware
10:57AM 61.5570 45.4550 78° East 576 663 35,000  Level FlightAware
10:58AM 61.5750 45.6320 78° East 576 663 35,000  Level FlightAware
10:59AM 61.5980 45.8650 78° East 576 663 35,000  Level FlightAware
10:59AM 61.5570 45.4550 258° West 577 664 35,000  Level FlightAware
11:00AM 61.5740 45.6230 78° East 577 664 35,000  Level FlightAware
11:01AM 61.5720 45.6180 230° Southwest 574 661 35,000  Level FlightAware
11:02AM 61.5890 45.8050 79° East 574 661 35,000  Level FlightAware
11:02AM 61.6060 45.9910 79° East 574 661 35,000  Level FlightAware
11:03AM 61.6240 46.1770 78° East 574 661 35,000  Level FlightAware
11:04AM 61.6410 46.3640 79° East 574 661 35,000  Level FlightAware
11:05AM 61.6620 46.5970 79° East 574 661 35,000  Level FlightAware
11:05AM 61.6800 46.7840 78° East 574 661 35,000  Level FlightAware
11:06AM 61.6970 46.9710 79° East 574 661 35,000  Level FlightAware
11:07AM 61.7140 47.1580 79° East 574 661 35,000  Level FlightAware
11:07AM 61.7310 47.3450 79° East 574 661 35,000  Level FlightAware
11:08AM 61.7530 47.5790 79° East 574 661 35,000  Level FlightAware
11:09AM 61.7700 47.7660 79° East 574 661 35,000  Level FlightAware
11:09AM 61.7870 47.9540 79° East 574 661 35,000  Level FlightAware
11:10AM 61.8040 48.1410 79° East 574 661 35,000  Level FlightAware
11:13AM 61.9174 48.7915 69° East  Level Estimated
11:14AM 61.9640 49.0659 70° East  Level Estimated
11:15AM 62.0101 49.3411 70° East  Level Estimated
11:16AM 62.0556 49.6171 70° East  Level Estimated
11:17AM 62.1006 49.8940 71° East  Level Estimated
11:18AM 62.1451 50.1717 71° East  Level Estimated
11:19AM 62.1889 50.4502 71° East  Level Estimated
11:20AM 62.2323 50.7295 71° East  Level Estimated
11:21AM 62.2750 51.0096 72° East  Level Estimated
11:22AM 62.3172 51.2904 72° East  Level Estimated
11:23AM 62.3588 51.5721 72° East  Level Estimated
11:24AM 62.3999 51.8546 72° East  Level Estimated
11:25AM 62.4403 52.1378 73° East  Level Estimated
11:26AM 62.4803 52.4218 73° East  Level Estimated
11:27AM 62.5196 52.7065 73° East  Level Estimated
11:28AM 62.5583 52.9920 73° East  Level Estimated
11:29AM 62.5965 53.2782 74° East  Level Estimated
11:30AM 62.6340 53.5651 74° East  Level Estimated
11:31AM 62.6710 53.8528 74° East  Level Estimated
11:32AM 62.7074 54.1412 74° East  Level Estimated
11:33AM 62.7432 54.4303 75° East  Level Estimated
11:34AM 62.7784 54.7201 75° East  Level Estimated
11:35AM 62.8130 55.0106 75° East  Level Estimated
11:36AM 62.8471 55.3017 76° East  Level Estimated
11:37AM 62.8805 55.5935 76° East  Level Estimated
11:38AM 62.9133 55.8860 76° East  Level Estimated
11:39AM 62.9455 56.1791 76° East  Level Estimated
11:40AM 62.9771 56.4729 77° East  Level Estimated
11:41AM 63.0080 56.7673 77° East  Level Estimated
11:42AM 63.0384 57.0623 77° East  Level Estimated
11:43AM 63.0681 57.3579 77° East  Level Estimated
11:44AM 63.0973 57.6542 78° East  Level Estimated
11:45AM 63.1258 57.9510 78° East  Level Estimated
11:46AM 63.1537 58.2484 78° East  Level Estimated
11:47AM 63.1810 58.5463 78° East  Level Estimated
11:48AM 63.2076 58.8448 79° East  Level Estimated
11:49AM 63.2336 59.1439 79° East  Level Estimated
11:50AM 63.2590 59.4435 79° East  Level Estimated
11:51AM 63.2838 59.7436 79° East  Level Estimated
11:52AM 63.3079 60.0442 80° East  Level Estimated
11:53AM 63.3314 60.3453 80° East  Level Estimated
11:54AM 63.3542 60.6469 80° East  Level Estimated
11:55AM 63.3764 60.9490 81° East  Level Estimated
11:56AM 63.3980 61.2516 81° East  Level Estimated
11:57AM 63.4190 61.5545 81° East  Level Estimated
11:58AM 63.4393 61.8580 81° East  Level Estimated
11:59AM 63.4589 62.1618 82° East  Level Estimated
12:00PM 63.4779 62.4660 82° East  Level Estimated
12:01PM 63.4963 62.7707 82° East  Level Estimated
12:02PM 63.5140 63.0757 82° East  Level Estimated
12:02PM 64.0300 65.9720 83° East 496 571 35,000  Level FlightAware
12:02PM 64.0530 66.1790 76° East 493 567 35,000  Level FlightAware
12:03PM 63.5311 63.3811 83° East  Level Estimated
12:03PM 64.0770 66.3900 75° East 490 564 35,000  Level FlightAware
12:04PM 64.0990 66.5940 76° East 490 564 35,000  Level FlightAware
12:04PM 64.1200 66.7940 76° East 490 564 35,000  Level FlightAware
12:05PM 64.1480 67.0400 75° East 489 563 35,000  Level FlightAware
12:06PM 64.1710 67.2450 75° East 488 562 35,000  Level FlightAware
12:07PM 64.1920 67.4490 77° East 486 559 35,000  Level FlightAware
12:07PM 64.2160 67.6690 76° East 484 557 35,000  Level FlightAware
12:08PM 64.2320 67.8290 77° East 481 554 35,000  Level FlightAware
12:09PM 64.2530 68.0310 76° East 482 555 35,000  Level FlightAware
12:09PM 64.2750 68.2430 76° East 483 556 35,000  Level FlightAware
12:10PM 64.3050 68.5400 77° East 482 555 35,000  Level FlightAware
12:11PM 64.3230 68.7230 77° East 484 557 35,000  Level FlightAware
12:12PM 64.3420 68.9250 78° East 483 556 35,000  Level FlightAware
12:12PM 64.3640 69.1480 77° East 484 557 35,000  Level FlightAware
12:13PM 64.3770 69.2880 78° East 485 558 35,000  Level FlightAware
12:14PM 64.4080 69.6180 78° East 487 560 35,000  Level FlightAware
12:15PM 64.4260 69.8250 79° East 486 559 35,000  Level FlightAware
12:15PM 64.4460 70.0500 78° East 487 560 35,000  Level FlightAware
12:16PM 64.4640 70.2600 79° East 488 562 35,000  Level FlightAware
12:17PM 64.4850 70.5110 79° East 489 563 35,000  Level FlightAware
12:17PM 64.5010 70.6960 79° East 492 566 35,000  Level FlightAware
12:18PM 64.5200 70.9290 79° East 493 567 35,000  Level FlightAware
12:19PM 64.5380 71.1610 80° East 491 565 35,000  Level FlightAware
12:19PM 64.5540 71.3690 80° East 489 563 35,000  Level FlightAware
12:20PM 64.5680 71.5610 80° East 489 563 35,000  Level FlightAware
12:21PM 64.5890 71.8340 80° East 487 560 35,000  Level FlightAware
12:22PM 64.6070 72.0800 80° East 485 558 35,000  Level FlightAware
12:22PM 64.6200 72.2710 81° East 486 559 35,000  Level FlightAware
12:23PM 64.6350 72.4790 80° East 487 560 35,000 60 Level FlightAware
12:24PM 64.6530 72.7310 80° East 488 562 35,100 420 Climbing FlightAware
12:25PM 64.6680 72.9450 81° East 491 565 35,700 840 Climbing FlightAware
12:25PM 64.6810 73.1320 81° East 494 568 36,200 960 Climbing FlightAware
12:26PM 64.6980 73.3840 81° East 490 564 37,000 540 Climbing FlightAware
12:27PM 64.7100 73.5760 82° East 491 565 37,000  Level FlightAware
12:27PM 64.7260 73.8330 82° East 490 564 37,000  Level FlightAware
12:28PM 64.7390 74.0440 82° East 489 563 37,000  Level FlightAware
12:29PM 64.7520 74.2590 82° East 489 563 37,000  Level FlightAware
12:29PM 64.7640 74.4680 82° East 489 563 37,000  Level FlightAware
12:30PM 64.7760 74.6770 82° East 491 565 37,000  Level FlightAware
12:31PM 64.7910 74.9560 83° East 491 565 37,000  Level FlightAware
12:32PM 64.8030 75.1720 82° East 490 564 37,000  Level FlightAware
12:32PM 64.8130 75.3610 83° East 489 563 37,000  Level FlightAware
12:33PM 64.8260 75.6200 83° East 490 564 37,000  Level FlightAware
12:34PM 64.8350 75.8100 84° East 491 565 37,000  Level FlightAware
12:34PM 64.8460 76.0320 83° East 491 565 37,000  Level FlightAware
12:35PM 64.8560 76.2580 84° East 489 563 37,000  Level FlightAware
12:36PM 64.8650 76.4580 84° East 488 562 37,000  Level FlightAware
12:37PM 64.8740 76.6790 84° East 489 563 37,000  Level FlightAware
12:37PM 64.8840 76.9020 84° East 490 564 37,000  Level FlightAware
12:38PM 64.8910 77.0820 85° East 490 564 37,000  Level FlightAware
12:38PM 64.8990 77.3000 85° East 490 564 37,000  Level FlightAware
12:39PM 64.9100 77.6000 85° East 488 562 37,000  Level FlightAware
12:40PM 64.9100 77.8160 90° East 492 566 37,000  Level FlightAware
12:41PM 64.9000 77.9880 98° East 492 566 37,000  Level FlightAware
12:41PM 64.8790 78.2400 101° East 485 558 37,000  Level FlightAware
12:42PM 64.8620 78.4430 101° East 481 554 37,000  Level FlightAware
12:43PM 64.8420 78.6740 101° East 477 549 37,000  Level FlightAware
12:43PM 64.8280 78.8360 101° East 475 547 37,000  Level FlightAware
12:44PM 64.8100 79.0420 102° East 475 547 37,000  Level FlightAware
12:45PM 64.7920 79.2450 102° East 475 547 37,000  Level FlightAware
12:45PM 64.7760 79.4110 103° East 476 548 37,000  Level FlightAware
12:46PM 64.7580 79.6140 102° East 480 552 37,000  Level FlightAware
12:47PM 64.7370 79.8390 102° East 481 554 37,000  Level FlightAware
12:47PM 64.7210 80.0130 102° East 481 554 37,000  Level FlightAware
12:48PM 64.7060 80.1860 101° East 481 554 37,000  Level FlightAware
12:49PM 64.6900 80.3590 102° East 481 554 37,000  Level FlightAware
12:50PM 64.6520 80.6920 105° East 37,000  Level FlightAware
12:52PM 64.6052 81.3123 100° East  Level Estimated
12:53PM 64.5804 81.6269 100° East  Level Estimated
12:54PM 64.5549 81.9409 101° East  Level Estimated
12:55PM 64.5288 82.2543 101° East  Level Estimated
12:56PM 64.5020 82.5671 101° East  Level Estimated
12:57PM 64.4746 82.8793 101° East  Level Estimated
12:58PM 64.4465 83.1908 102° East  Level Estimated
12:59PM 64.4177 83.5017 102° East  Level Estimated
01:00PM 64.3883 83.8120 102° East  Level Estimated
01:01PM 64.3582 84.1216 103° East  Level Estimated
01:02PM 64.3275 84.4305 103° East  Level Estimated
01:03PM 64.2961 84.7386 103° East  Level Estimated
01:04PM 64.2641 85.0461 103° East  Level Estimated
01:05PM 64.2314 85.3529 104° East  Level Estimated
01:06PM 64.1981 85.6589 104° East  Level Estimated
01:07PM 64.1641 85.9642 104° East  Level Estimated
01:08PM 64.1295 86.2688 104° East  Level Estimated
01:09PM 64.0943 86.5725 105° East  Level Estimated
01:10PM 64.0585 86.8755 105° East  Level Estimated
01:11PM 64.0220 87.1778 105° East  Level Estimated
01:12PM 63.9849 87.4792 106° East  Level Estimated
01:13PM 63.9471 87.7798 106° East  Level Estimated
01:14PM 63.9088 88.0796 106° East  Level Estimated
01:15PM 63.8698 88.3786 106° East  Level Estimated
01:16PM 63.8302 88.6767 107° East  Level Estimated
01:17PM 63.7900 88.9740 107° East  Level Estimated
01:18PM 63.7492 89.2705 107° East  Level Estimated
01:19PM 63.7078 89.5660 107° East  Level Estimated
01:20PM 63.6658 89.8607 108° East  Level Estimated
01:21PM 63.6232 90.1546 108° East  Level Estimated
01:22PM 63.5799 90.4475 108° East  Level Estimated
01:23PM 63.5361 90.7396 108° East  Level Estimated
01:24PM 63.4917 91.0307 109° East  Level Estimated
01:25PM 63.4468 91.3210 109° East  Level Estimated
01:26PM 63.4012 91.6103 109° East  Level Estimated
01:27PM 63.3550 91.8987 110° East  Level Estimated
01:28PM 63.3083 92.1862 110° East  Level Estimated
01:29PM 63.2609 92.4727 110° East  Level Estimated
01:30PM 63.2131 92.7583 110° East  Level Estimated
01:31PM 63.1646 93.0429 111° Southeast  Level Estimated
01:32PM 63.1156 93.3266 111° Southeast  Level Estimated
01:33PM 63.0660 93.6093 111° Southeast  Level Estimated
01:34PM 63.0158 93.8911 111° Southeast  Level Estimated
01:35PM 62.9651 94.1719 112° Southeast  Level Estimated
01:36PM 62.9138 94.4517 112° Southeast  Level Estimated
01:37PM 62.8620 94.7305 112° Southeast  Level Estimated
01:38PM 62.8096 95.0083 112° Southeast  Level Estimated
01:39PM 62.7567 95.2852 113° Southeast  Level Estimated
01:40PM 62.7033 95.5610 113° Southeast  Level Estimated
01:41PM 62.6493 95.8359 113° Southeast  Level Estimated
01:42PM 62.5947 96.1097 113° Southeast  Level Estimated
01:43PM 62.5396 96.3826 114° Southeast  Level Estimated
01:44PM 62.4841 96.6544 114° Southeast  Level Estimated
01:45PM 62.4279 96.9252 114° Southeast  Level Estimated
01:46PM 62.3713 97.1950 114° Southeast  Level Estimated
01:47PM 62.3141 97.4638 114° Southeast  Level Estimated
01:48PM 62.2564 97.7315 115° Southeast  Level Estimated
01:49PM 62.1982 97.9982 115° Southeast  Level Estimated
01:50PM 62.1395 98.2639 115° Southeast  Level Estimated
01:51PM 62.0803 98.5285 115° Southeast  Level Estimated
01:52PM 62.0206 98.7922 116° Southeast  Level Estimated
01:53PM 61.9604 99.0547 116° Southeast  Level Estimated
01:54PM 61.8997 99.3163 116° Southeast  Level Estimated
01:55PM 61.8384 99.5768 116° Southeast  Level Estimated
01:56PM 61.7767 99.8362 117° Southeast  Level Estimated
01:57PM 61.7146 100.0947 117° Southeast  Level Estimated
01:58PM 61.6519 100.3520 117° Southeast  Level Estimated
01:59PM 61.5887 100.6084 117° Southeast  Level Estimated
02:00PM 61.5251 100.8636 118° Southeast  Level Estimated
02:01PM 61.4610 101.1179 118° Southeast  Level Estimated
02:02PM 61.3964 101.3710 118° Southeast  Level Estimated
02:03PM 61.3314 101.6232 118° Southeast  Level Estimated
02:04PM 61.2659 101.8743 118° Southeast  Level Estimated
02:05PM 61.1999 102.1243 119° Southeast  Level Estimated
02:06PM 61.1334 102.3733 119° Southeast  Level Estimated
02:07PM 61.0666 102.6212 119° Southeast  Level Estimated
02:08PM 60.9992 102.8681 119° Southeast  Level Estimated
02:09PM 60.9314 103.1140 119° Southeast  Level Estimated
02:10PM 60.8632 103.3588 120° Southeast  Level Estimated
02:11PM 60.7945 103.6025 120° Southeast  Level Estimated
02:12PM 60.7254 103.8452 120° Southeast  Level Estimated
02:13PM 60.6558 104.0869 120° Southeast  Level Estimated
02:14PM 60.5858 104.3275 121° Southeast  Level Estimated
02:15PM 60.5154 104.5671 121° Southeast  Level Estimated
02:16PM 60.4446 104.8056 121° Southeast  Level Estimated
02:17PM 60.3733 105.0431 121° Southeast  Level Estimated
02:18PM 60.3016 105.2795 121° Southeast  Level Estimated
02:19PM 60.2295 105.5149 122° Southeast  Level Estimated
02:20PM 60.1570 105.7493 122° Southeast  Level Estimated
02:21PM 60.0840 105.9827 122° Southeast  Level Estimated
02:22PM 60.0107 106.2150 122° Southeast  Level Estimated
02:23PM 59.9370 106.4462 122° Southeast  Level Estimated
02:24PM 59.8628 106.6765 123° Southeast  Level Estimated
02:25PM 59.7882 106.9057 123° Southeast  Level Estimated
02:26PM 59.7133 107.1339 123° Southeast  Level Estimated
02:27PM 59.6380 107.3610 123° Southeast  Level Estimated
02:28PM 59.5622 107.5872 123° Southeast  Level Estimated
02:29PM 59.4861 107.8123 124° Southeast  Level Estimated
02:30PM 59.4096 108.0364 124° Southeast  Level Estimated
02:31PM 59.3327 108.2595 124° Southeast  Level Estimated
02:32PM 59.2554 108.4816 124° Southeast  Level Estimated
02:33PM 59.1778 108.7027 124° Southeast  Level Estimated
02:34PM 59.0998 108.9228 125° Southeast  Level Estimated
02:35PM 59.0214 109.1419 125° Southeast  Level Estimated
02:36PM 58.9426 109.3600 125° Southeast  Level Estimated
02:37PM 58.8635 109.5770 125° Southeast  Level Estimated
02:38PM 58.7840 109.7931 125° Southeast  Level Estimated
02:39PM 58.7041 110.0082 125° Southeast  Level Estimated
02:40PM 58.6239 110.2224 126° Southeast  Level Estimated
02:41PM 58.5434 110.4355 126° Southeast  Level Estimated
02:42PM 58.4625 110.6476 126° Southeast  Level Estimated
02:43PM 58.3812 110.8588 126° Southeast  Level Estimated
02:44PM 58.2996 111.0690 126° Southeast  Level Estimated
02:45PM 58.2177 111.2783 127° Southeast  Level Estimated
02:46PM 58.1354 111.4865 127° Southeast  Level Estimated
02:47PM 58.0527 111.6938 127° Southeast  Level Estimated
02:48PM 57.9698 111.9002 127° Southeast  Level Estimated
02:49PM 57.8865 112.1056 127° Southeast  Level Estimated
02:50PM 57.8029 112.3100 127° Southeast  Level Estimated
02:51PM 57.7189 112.5135 128° Southeast  Level Estimated
02:52PM 57.6346 112.7161 128° Southeast  Level Estimated
02:53PM 57.5500 112.9177 128° Southeast  Level Estimated
02:54PM 57.4651 113.1184 128° Southeast  Level Estimated
02:55PM 57.3799 113.3181 128° Southeast  Level Estimated
02:56PM 57.2943 113.5169 128° Southeast  Level Estimated
02:57PM 57.2085 113.7148 129° Southeast  Level Estimated
02:58PM 57.1223 113.9118 129° Southeast  Level Estimated
02:59PM 57.0358 114.1078 129° Southeast  Level Estimated
03:00PM 56.9490 114.3030 129° Southeast  Level Estimated
03:01PM 56.8619 114.4972 129° Southeast  Level Estimated
03:02PM 56.7746 114.6906 129° Southeast  Level Estimated
03:03PM 56.6869 114.8830 130° Southeast  Level Estimated
03:04PM 56.5989 115.0745 130° Southeast  Level Estimated
03:05PM 56.5106 115.2652 130° Southeast  Level Estimated
03:06PM 56.4221 115.4549 130° Southeast  Level Estimated
03:07PM 56.3332 115.6438 130° Southeast  Level Estimated
03:08PM 56.2441 115.8318 130° Southeast  Level Estimated
03:09PM 56.1547 116.0189 131° Southeast  Level Estimated
03:10PM 56.0649 116.2052 131° Southeast  Level Estimated
03:11PM 55.9750 116.3906 131° Southeast  Level Estimated
03:12PM 55.8847 116.5751 131° Southeast  Level Estimated
03:13PM 55.7942 116.7588 131° Southeast  Level Estimated
03:14PM 55.7034 116.9416 131° Southeast  Level Estimated
03:15PM 55.6123 117.1235 132° Southeast  Level Estimated
03:16PM 55.5210 117.3046 132° Southeast  Level Estimated
03:17PM 55.4294 117.4849 132° Southeast  Level Estimated
03:18PM 55.3375 117.6644 132° Southeast  Level Estimated
03:19PM 55.2453 117.8430 132° Southeast  Level Estimated
03:20PM 55.1530 118.0208 132° Southeast  Level Estimated
03:21PM 55.0603 118.1977 132° Southeast  Level Estimated
03:22PM 54.9674 118.3739 133° Southeast  Level Estimated
03:23PM 54.8742 118.5492 133° Southeast  Level Estimated
03:24PM 54.7808 118.7237 133° Southeast  Level Estimated
03:25PM 54.6872 118.8974 133° Southeast  Level Estimated
03:26PM 54.5933 119.0703 133° Southeast  Level Estimated
03:27PM 54.4991 119.2424 133° Southeast  Level Estimated
03:28PM 54.4047 119.4138 133° Southeast  Level Estimated
03:29PM 54.3101 119.5843 134° Southeast  Level Estimated
03:30PM 54.2152 119.7541 134° Southeast  Level Estimated
03:31PM 54.1201 119.9230 134° Southeast  Level Estimated
03:32PM 54.0247 120.0912 134° Southeast  Level Estimated
03:33PM 53.9291 120.2587 134° Southeast  Level Estimated
03:34PM 53.8333 120.4253 134° Southeast  Level Estimated
03:35PM 53.7373 120.5912 134° Southeast  Level Estimated
03:36PM 53.6410 120.7564 134° Southeast  Level Estimated
03:37PM 53.5445 120.9208 135° Southeast  Level Estimated
03:38PM 53.4478 121.0844 135° Southeast  Level Estimated
03:39PM 53.3508 121.2473 135° Southeast  Level Estimated
03:40PM 53.2537 121.4094 135° Southeast  Level Estimated
03:40PM 54.9190 122.7960 135° Southeast 490 564 39,000  Level FlightAware
03:40PM 54.8620 122.9240 128° Southeast 489 563 39,000  Level FlightAware
03:41PM 53.1563 121.5709 135° Southeast  Level Estimated
03:41PM 54.8000 123.0600 128° Southeast 491 565 39,000  Level FlightAware
03:42PM 54.7450 123.1800 128° Southeast 493 567 39,000  Level FlightAware
03:43PM 54.6800 123.3190 129° Southeast 494 568 39,000  Level FlightAware
03:43PM 54.6250 123.4380 129° Southeast 496 571 39,000  Level FlightAware
03:44PM 54.5650 123.5660 129° Southeast 497 572 39,000  Level FlightAware
03:45PM 54.5030 123.7000 129° Southeast 495 570 39,000  Level FlightAware
03:45PM 54.4530 123.8060 129° Southeast 497 572 39,000  Level FlightAware
03:46PM 54.3790 123.9600 129° Southeast 498 573 39,000  Level FlightAware
03:47PM 54.3220 124.0810 129° Southeast 498 573 39,000  Level FlightAware
03:48PM 54.2510 124.2290 129° Southeast 499 574 39,000  Level FlightAware
03:48PM 54.1910 124.3530 130° Southeast 498 573 39,000  Level FlightAware
03:49PM 54.1430 124.4530 129° Southeast 498 573 39,000  Level FlightAware
03:50PM 54.0670 124.6100 129° Southeast 498 573 39,000  Level FlightAware
03:50PM 54.0090 124.7270 130° Southeast 496 571 39,000  Level FlightAware
03:51PM 53.9540 124.8380 130° Southeast 498 573 39,000  Level FlightAware
03:52PM 53.8880 124.9700 130° Southeast 500 575 39,000  Level FlightAware
03:53PM 53.7820 125.1820 130° Southeast 498 573 39,000  Level FlightAware
03:54PM 53.7220 125.3010 130° Southeast 499 574 39,000  Level FlightAware
03:54PM 53.6800 125.3850 130° Southeast 500 575 39,000  Level FlightAware
03:55PM 53.5720 125.5970 131° Southeast 497 572 39,000  Level FlightAware
03:56PM 53.5150 125.7090 131° Southeast 497 572 39,000  Level FlightAware
03:57PM 53.4490 125.8380 131° Southeast 499 574 39,000  Level FlightAware
03:57PM 53.3920 125.9620 128° Southeast 498 573 39,000  Level FlightAware
03:58PM 53.3320 126.0930 127° Southeast 501 577 39,000  Level FlightAware
03:59PM 53.2710 126.2220 128° Southeast 500 575 39,000  Level FlightAware
03:59PM 53.2440 126.2790 128° Southeast 500 575 39,000  Level FlightAware
04:01PM 53.0580 126.6690 128° Southeast 498 573 39,000  Level FlightAware
04:02PM 52.9920 126.8060 129° Southeast 498 573 39,000  Level FlightAware
04:03PM 52.9320 126.9300 129° Southeast 500 575 39,000  Level FlightAware
04:03PM 52.8660 127.0650 129° Southeast 501 577 39,000  Level FlightAware
04:04PM 52.7820 127.2360 129° Southeast 503 579 39,000  Level FlightAware
04:05PM 52.7060 127.3900 129° Southeast 503 579 39,000  Level FlightAware
04:06PM 52.6490 127.5050 129° Southeast 502 578 39,000  Level FlightAware
04:07PM 52.5860 127.6310 129° Southeast 501 577 39,000  Level FlightAware
04:08PM 52.4930 127.8140 130° Southeast 500 575 39,000  Level FlightAware
04:08PM 52.4410 127.9170 130° Southeast 501 577 39,000  Level FlightAware
04:09PM 52.3770 128.0420 130° Southeast 503 579 39,000  Level FlightAware
04:10PM 52.3070 128.1780 130° Southeast 504 580 39,000  Level FlightAware
04:10PM 52.2470 128.2940 130° Southeast 505 581 39,000  Level FlightAware
04:11PM 52.1840 128.4150 130° Southeast 505 581 39,000  Level FlightAware
04:12PM 52.1180 128.5410 130° Southeast 503 579 39,000  Level FlightAware
04:13PM 52.0360 128.6990 130° Southeast 503 579 39,000  Level FlightAware
04:14PM 51.9530 128.8580 130° Southeast 503 579 39,000  Level FlightAware
04:14PM 51.8910 128.9720 131° Southeast 502 578 39,000  Level FlightAware
04:15PM 51.8350 129.0780 131° Southeast 502 578 39,000  Level FlightAware
04:16PM 51.7730 129.1980 130° Southeast 502 578 39,000  Level FlightAware
04:16PM 51.7220 129.2960 130° Southeast 502 578 39,000  Level FlightAware
04:17PM 51.6710 129.3930 130° Southeast 502 578 39,000  Level FlightAware
04:18PM 51.6080 129.5150 130° Southeast 502 578 39,000  Level FlightAware
04:19PM 51.5570 129.6120 130° Southeast 502 578 39,000  Level FlightAware
04:19PM 51.5060 129.7100 130° Southeast 502 578 39,000  Level FlightAware
04:20PM 51.4560 129.8070 130° Southeast 502 578 39,000  Level FlightAware
04:21PM 51.4050 129.9040 130° Southeast 502 578 39,000  Level FlightAware
04:21PM 51.3410 130.0250 130° Southeast 502 578 39,000  Level FlightAware
04:22PM 51.2910 130.1220 129° Southeast 502 578 39,000  Level FlightAware
04:23PM 51.2400 130.2180 130° Southeast 502 578 39,000  Level FlightAware
04:23PM 51.1890 130.3150 130° Southeast 502 578 39,000  Level FlightAware
04:24PM 51.0690 130.4610 143° Southeast 39,000  Level FlightAware
04:24PM 51.0130 130.5570 133° Southeast 505 581 39,000  Level FlightAware
04:25PM 50.9490 130.6670 133° Southeast 505 581 39,000  Level FlightAware
04:26PM 50.8930 130.7620 133° Southeast 505 581 39,000  Level FlightAware
04:26PM 50.8140 130.8950 133° Southeast 505 581 39,000  Level FlightAware
04:27PM 50.7550 130.9960 133° Southeast 508 585 39,000  Level FlightAware
04:28PM 50.6600 131.1560 133° Southeast 510 587 39,000  Level FlightAware
04:29PM 50.6050 131.2470 134° Southeast 511 588 39,000  Level FlightAware
04:29PM 50.5480 131.3420 133° Southeast 511 588 39,000  Level FlightAware
04:30PM 50.4520 131.5010 133° Southeast 512 589 39,000  Level FlightAware
04:31PM 50.3720 131.6330 134° Southeast 512 589 39,000  Level FlightAware
04:32PM 50.3030 131.7460 134° Southeast 513 590 39,000  Level FlightAware
04:33PM 50.2330 131.8610 134° Southeast 514 592 39,000  Level FlightAware
04:33PM 50.1510 131.9940 134° Southeast 514 592 39,000  Level FlightAware
04:34PM 50.0810 132.1080 134° Southeast 512 589 39,000  Level FlightAware
04:35PM 50.0120 132.2190 134° Southeast 514 592 39,000  Level FlightAware
04:35PM 49.9460 132.3230 135° Southeast 515 593 39,000  Level FlightAware
04:36PM 49.8840 132.4210 134° Southeast 514 592 39,000  Level FlightAware
04:37PM 49.8050 132.5450 135° Southeast 515 593 39,000  Level FlightAware
04:37PM 49.7570 132.6210 134° Southeast 517 595 39,000  Level FlightAware
04:38PM 49.6750 132.7480 135° Southeast 520 598 39,000  Level FlightAware
04:39PM 49.5880 132.8840 135° Southeast 519 597 39,000  Level FlightAware
04:40PM 49.5030 133.0150 135° Southeast 519 597 39,000  Level FlightAware
04:41PM 49.4040 133.1660 135° Southeast 517 595 39,000  Level FlightAware
04:41PM 49.3410 133.2630 135° Southeast 518 596 39,000  Level FlightAware
04:42PM 49.2780 133.3580 135° Southeast 519 597 39,000  Level FlightAware
04:43PM 49.2080 133.4840 130° Southeast 522 601 39,000  Level FlightAware
04:43PM 49.1540 133.6130 123° Southeast 520 598 39,000  Level FlightAware
04:44PM 49.0940 133.7690 120° Southeast 518 596 39,000  Level FlightAware
04:46PM 49.0080 133.9910 121° Southeast 518 596 39,000  Level FlightAware
04:46PM 48.9490 134.1400 121° Southeast 524 603 39,000  Level FlightAware
04:47PM 48.8500 134.3980 120° Southeast 525 604 39,000  Level FlightAware
04:48PM 48.8020 134.5300 119° Southeast 523 602 39,000  Level FlightAware
04:48PM 48.7530 134.6610 120° Southeast 522 601 39,000  Level FlightAware
04:49PM 48.7060 134.7850 120° Southeast 522 601 39,000  Level FlightAware
04:50PM 48.6560 134.9170 120° Southeast 523 602 39,000  Level FlightAware
04:50PM 48.5990 135.0400 125° Southeast 524 603 39,000  Level FlightAware
04:52PM 48.4650 135.2330 136° Southeast 524 603 39,000  Level FlightAware
04:52PM 48.3910 135.3060 147° Southeast 521 600 39,000  Level FlightAware
04:53PM 48.2830 135.3850 154° Southeast 521 600 39,000  Level FlightAware
04:54PM 48.1660 135.4640 156° South 521 600 39,000  Level FlightAware
04:55PM 48.0550 135.5370 156° South 519 597 39,000  Level FlightAware
04:56PM 47.9680 135.5940 156° South 520 598 39,000  Level FlightAware
04:57PM 47.8320 135.6840 156° South 523 602 39,000  Level FlightAware
04:57PM 47.8060 135.7000 158° South 523 602 39,000  Level FlightAware
04:58PM 47.7170 135.7590 156° South 523 602 39,000  Level FlightAware
04:59PM 47.6190 135.8220 157° South 524 603 39,000  Level FlightAware
05:00PM 47.5270 135.8820 156° South 524 603 39,000  Level FlightAware
05:01PM 47.4140 135.9550 156° South 523 602 39,000  Level FlightAware
05:01PM 47.2850 136.0380 156° South 523 602 39,000  Level FlightAware
05:02PM 47.1860 136.1020 156° South 523 602 39,000  Level FlightAware
05:03PM 47.0720 136.1780 156° South 524 603 39,000  Level FlightAware
05:03PM 47.0090 136.2190 156° South 524 603 39,000  Level FlightAware
05:04PM 46.9380 136.2660 156° South 524 603 39,000  Level FlightAware
05:05PM 46.8160 136.3260 161° South 522 601 39,000  Level FlightAware
05:05PM 46.7130 136.3520 170° South 515 593 39,000  Level FlightAware
05:06PM 46.6080 136.3680 174° South 513 590 39,000  Level FlightAware
05:07PM 46.5000 136.3850 174° South 514 592 39,000  Level FlightAware
05:08PM 46.4040 136.3990 174° South 514 592 39,000  Level FlightAware
05:08PM 46.2790 136.4180 174° South 512 589 39,000  Level FlightAware
05:09PM 46.1700 136.4340 174° South 514 592 39,000  Level FlightAware
05:10PM 46.0880 136.4460 174° South 515 593 39,000  Level FlightAware
05:11PM 45.9910 136.4610 174° South 517 595 39,000  Level FlightAware
05:11PM 45.8700 136.4790 174° South 519 597 39,000  Level FlightAware
05:12PM 45.7480 136.4970 174° South 518 596 39,000  Level FlightAware
05:13PM 45.6680 136.5080 175° South 519 597 39,000  Level FlightAware
05:13PM 45.5870 136.5200 174° South 519 597 39,000  Level FlightAware
05:14PM 45.4850 136.5360 174° South 519 597 39,000  Level FlightAware
05:15PM 45.4040 136.5480 174° South 519 597 39,000  Level FlightAware
05:16PM 45.3230 136.5600 174° South 519 597 39,000  Level FlightAware
05:16PM 45.2210 136.5750 174° South 519 597 39,000  Level FlightAware
05:17PM 45.1400 136.5870 174° South 519 597 39,000  Level FlightAware
05:18PM 45.0590 136.5990 174° South 519 597 39,000  Level FlightAware
05:18PM 44.9780 136.6110 174° South 519 597 39,000  Level FlightAware
05:19PM 44.8960 136.6240 174° South 519 597 39,000  Level FlightAware
05:20PM 44.7950 136.6390 174° South 519 597 39,000  Level FlightAware
05:21PM 44.7140 136.6510 174° South 519 597 39,000  Level FlightAware
05:21PM 44.6320 136.6630 174° South 519 597 39,000  Level FlightAware
05:22PM 44.5510 136.6750 174° South 519 597 39,000  Level FlightAware
05:25PM 44.2202 136.8349 161° South  Level Estimated
05:26PM 44.0905 136.8971 161° South  Level Estimated
05:27PM 43.9607 136.9590 161° South  Level Estimated
05:28PM 43.8308 137.0207 161° South  Level Estimated
05:29PM 43.7010 137.0821 161° South  Level Estimated
05:30PM 43.5711 137.1432 161° South  Level Estimated
05:31PM 43.4411 137.2041 161° South  Level Estimated
05:32PM 43.3112 137.2647 161° South  Level Estimated
05:33PM 43.1812 137.3251 161° South  Level Estimated
05:34PM 43.0511 137.3852 161° South  Level Estimated
05:35PM 42.9211 137.4450 161° South  Level Estimated
05:36PM 42.7910 137.5046 161° South  Level Estimated
05:37PM 42.6609 137.5639 161° South  Level Estimated
05:38PM 42.5307 137.6230 161° South  Level Estimated
05:39PM 42.4005 137.6819 162° South  Level Estimated
05:40PM 42.2703 137.7405 162° South  Level Estimated
05:41PM 42.1401 137.7988 162° South  Level Estimated
05:41PM 41.5810 136.8160 162° South 515 593 39,000  Level FlightAware
05:42PM 41.4950 136.8580 160° South 527 606 39,000  Level FlightAware
05:43PM 41.3890 136.9370 151° Southeast 550 633 39,000  Level FlightAware
05:43PM 41.3140 136.9920 151° Southeast 550 633 39,000  Level FlightAware
05:44PM 41.2110 137.0680 151° Southeast 550 633 39,000  Level FlightAware
05:45PM 41.1110 137.1430 151° Southeast 553 636 39,000  Level FlightAware
05:45PM 41.0260 137.2070 150° Southeast 555 639 39,000  Level FlightAware
05:46PM 40.9330 137.2740 151° Southeast 555 639 39,000  Level FlightAware
05:47PM 40.8300 137.3500 151° Southeast 555 639 39,000  Level FlightAware
05:47PM 40.7400 137.4160 151° Southeast 556 640 39,000  Level FlightAware
05:48PM 40.6370 137.4910 151° Southeast 556 640 39,000  Level FlightAware
05:49PM 40.5470 137.5560 151° Southeast 554 638 39,000  Level FlightAware
05:50PM 40.3540 137.6960 154° Southeast 551 634 39,000  Level FlightAware
05:51PM 40.3452 137.6842 154° Southeast  Level Estimated
05:53PM 40.0899 137.8615 154° Southeast  Level Estimated
05:54PM 39.9660 137.9386 154° Southeast  Level Estimated
05:55PM 39.8421 138.0154 155° Southeast  Level Estimated
05:55PM 39.7060 138.1580 155° Southeast 552 635 39,000  Level FlightAware
05:56PM 39.6060 138.2290 151° Southeast 550 633 39,000  Level FlightAware
05:57PM 39.5040 138.3000 152° Southeast 551 634 39,000  Level FlightAware
05:57PM 39.4120 138.3640 152° Southeast 550 633 39,000  Level FlightAware
05:58PM 39.3210 138.4280 151° Southeast 550 633 39,000  Level FlightAware
05:59PM 39.2170 138.5000 152° Southeast 550 633 39,000  Level FlightAware
05:59PM 39.1280 138.5620 152° Southeast 550 633 39,000  Level FlightAware
06:00PM 39.0380 138.6240 152° Southeast 550 633 39,000  Level FlightAware
06:01PM 38.9340 138.6960 152° Southeast 549 632 39,000  Level FlightAware
06:01PM 38.8440 138.7580 152° Southeast 547 629 39,000  Level FlightAware
06:02PM 38.7410 138.8280 152° Southeast 546 628 39,000  Level FlightAware
06:03PM 38.6520 138.8890 152° Southeast 546 628 39,000 -240 Level FlightAware
06:04PM 38.5600 138.9510 152° Southeast 547 629 38,700 -780 Descending FlightAware
06:04PM 38.4500 139.0260 152° Southeast 565 650 37,900 -1,080 Descending FlightAware
06:05PM 38.3580 139.0880 152° Southeast 579 666 37,200 -1,080 Descending FlightAware
06:06PM 38.2600 139.1540 152° Southeast 581 669 36,500 -1,320 Descending FlightAware
06:06PM 38.1570 139.2240 152° Southeast 567 652 35,400 -1,740 Descending FlightAware
06:07PM 38.0630 139.2870 152° Southeast 544 626 34,100 -1,140 Descending FlightAware
06:10PM 37.7474 139.4422 159° South  Level Estimated
06:11PM 37.6194 139.5048 159° South  Level Estimated
06:12PM 37.4914 139.5671 159° South  Level Estimated
06:13PM 37.3634 139.6293 159° South  Level Estimated
06:14PM 37.2353 139.6912 159° South  Level Estimated
06:15PM 37.1072 139.7529 159° South  Level Estimated
06:15PM 37.0890 140.0060 159° South 491 565 25,500  Level FlightAware
06:16PM 37.0100 140.0620 150° Southeast 480 552 24,500 -1,500 Descending FlightAware
06:17PM 36.9300 140.1180 151° Southeast 461 531 23,400 -1,560 Descending FlightAware
06:17PM 36.8520 140.1720 151° Southeast 453 521 22,300 -1,500 Descending FlightAware
06:18PM 36.7760 140.2250 151° Southeast 444 511 21,300 -1,500 Descending FlightAware
06:19PM 36.7010 140.2760 151° Southeast 427 491 20,200 -1,500 Descending FlightAware
06:19PM 36.6330 140.3230 151° Southeast 426 490 19,300 -1,440 Descending FlightAware
06:20PM 36.5610 140.3730 151° Southeast 427 491 18,200 -1,560 Descending FlightAware
06:21PM 36.4780 140.4310 151° Southeast 412 474 17,000 -1,500 Descending FlightAware
06:22PM 36.4210 140.4700 151° Southeast 403 464 16,100 -1,380 Descending FlightAware
06:22PM 36.3470 140.5200 151° Southeast 393 452 15,100 -1,380 Descending FlightAware
06:23PM 36.2910 140.5510 156° South 379 436 14,400 -1,380 Descending FlightAware
06:24PM 36.1870 140.5970 160° South 372 428 13,000 -1,260 Descending FlightAware
06:25PM 36.1210 140.6240 162° South 364 419 12,100 -1,320 Descending FlightAware
06:25PM 36.0500 140.6460 166° South 345 397 11,200 -1,200 Descending FlightAware
06:26PM 35.9900 140.6650 166° South 329 379 10,500 -780 Descending FlightAware
06:27PM 35.9250 140.6850 166° South 299 344 10,100 -720 Descending FlightAware
06:27PM 35.8920 140.6950 166° South 289 333 9,700 -780 Descending FlightAware
06:28PM 35.8540 140.7070 166° South 276 318 9,400 -720 Descending FlightAware
06:28PM 35.8410 140.7120 163° South 273 314 9,200 -1,200 Descending FlightAware
06:28PM 35.8180 140.7190 166° South 267 307 8,800 -840 Descending FlightAware
06:29PM 35.7830 140.7230 175° South 248 285 8,600 -600 Descending FlightAware
06:29PM 35.7600 140.7260 174° South 243 280 8,300 -780 Descending FlightAware
06:30PM 35.7140 140.7210 185° South 216 249 7,800 -780 Descending FlightAware
06:30PM 35.6880 140.7110 197° South 208 239 7,400 -720 Descending FlightAware
06:30PM 35.6780 140.7080 194° South 202 232 7,300 -1,020 Descending FlightAware
06:31PM 35.6630 140.7030 195° South 201 231 6,900 -1,440 Descending FlightAware
06:32PM 35.6050 140.6700 205° Southwest 5,400 -1,440 Descending FlightAware
06:32PM 35.5870 140.6490 223° Southwest 214 246 4,800 -1,320 Descending FlightAware
06:33PM 35.5630 140.6210 224° Southwest 222 255 4,200 -1,080 Descending FlightAware
06:33PM 35.5550 140.6040 240° Southwest 222 255 4,000 -480 Descending FlightAware
06:33PM 35.5450 140.5810 242° Southwest 220 253 3,900 -120 Descending FlightAware
06:34PM 35.5440 140.5390 268° West 226 260 3,900 360 Level FlightAware
06:34PM 35.5650 140.5190 322° Northwest 211 243 4,300 -120 Climbing FlightAware
06:35PM 35.5850 140.5050 330° Northwest 202 232 3,800 -1,200 Descending FlightAware
06:35PM 35.6020 140.4930 330° Northwest 202 232 3,400 -1,080 Descending FlightAware
06:35PM 35.6130 140.4850 329° Northwest 202 232 3,200 -900 Descending FlightAware
06:36PM 35.6270 140.4750 330° Northwest 175 201 2,900 -960 Descending FlightAware
06:36PM 35.6480 140.4590 328° Northwest 187 215 2,500 -480 Descending FlightAware
06:37PM 35.6650 140.4470 330° Northwest 187 215 2,500 -1,080 Level FlightAware
06:37PM 35.6770 140.4380 329° Northwest 1,800 -1,560 Descending FlightAware
06:37PM 35.6970 140.4240 330° Northwest 166 191 1,200 -1,140 Descending FlightAware
06:38PM 35.7180 140.4090 330° Northwest 151 174 700 -1,020 Descending FlightAware
06:38PM 35.7320 140.3990 330° Northwest 147 169 300 -480 Descending FlightAware
06:39PM 35.7450 140.3890 328° Northwest 147 169 300  Level FlightAware
06:41PM 35.7647 140.3864 354° North  Level Estimated
06:42PM 35.7647 140.3864 338° Northwest  Level Estimated
06:43PM 35.7647 140.3864 338° Northwest  Level Estimated
06:44PM 35.7647 140.3864 338° Northwest  Level Estimated
06:45PM 35.7647 140.3864 338° Northwest  Level Estimated
06:46PM 35.7647 140.3864 338° Northwest  Level Estimated